Time;durP1;ratioP1;P1;durP2;ratioP2;P2;SDS_P1;SDS_P2;PMS_P1;PMS_P2;Temp;Humidity;BMP_temperature;BMP_pressure;BME280_temperature;BME280_humidity;BME280_pressure;Samples;Min_cycle;Max_cycle;Signal;HPM_P1;HPM_P2
2021/10/02 00:31:11;;;;;;;12.70;6.90;;;;;;;;;;5041649;28;20042;-87
2021/10/02 00:46:19;;;;;;;13.13;8.25;;;;;;;;;;5022978;28;20050;-83
2021/10/02 00:48:46;;;;;;;18.90;8.32;;;;;;;;;;5013196;28;20390;-83
2021/10/02 00:51:15;;;;;;;16.38;8.25;;;;;;;;;;5015550;28;20050;-83
2021/10/02 00:53:42;;;;;;;16.95;8.57;;;;;;;;;;5029895;28;20444;-83
2021/10/02 00:56:10;;;;;;;16.52;9.05;;;;;;;;;;5027260;28;20330;-83
2021/10/02 00:58:36;;;;;;;13.38;7.68;;;;;;;;;;5034956;28;20060;-83
2021/10/02 01:01:03;;;;;;;14.38;8.60;;;;;;;;;;5030848;28;20111;-84
2021/10/02 01:03:51;;;;;;;16.08;8.63;;;;;;;;;;5032779;28;20064;-83
2021/10/02 01:06:20;;;;;;;17.98;9.35;;;;;;;;;;5025947;28;20041;-83
2021/10/02 01:09:26;;;;;;;13.55;9.02;;;;;;;;;;5032417;28;20380;-84
2021/10/02 01:11:55;;;;;;;16.35;8.32;;;;;;;;;;4991918;28;20043;-84
2021/10/02 01:14:31;;;;;;;19.52;9.18;;;;;;;;;;4994820;28;20077;-84
2021/10/02 01:17:02;;;;;;;20.63;9.77;;;;;;;;;;5018617;28;20049;-84
2021/10/02 01:19:48;;;;;;;15.30;8.95;;;;;;;;;;5033274;28;20053;-84
2021/10/02 01:22:31;;;;;;;18.40;9.60;;;;;;;;;;5034417;28;20057;-84
2021/10/02 01:25:17;;;;;;;17.90;9.20;;;;;;;;;;5034788;28;20385;-84
2021/10/02 01:27:56;;;;;;;21.10;10.10;;;;;;;;;;5040019;28;20054;-83
2021/10/02 01:33:27;;;;;;;18.85;10.45;;;;;;;;;;5031542;28;20046;-84
2021/10/02 01:36:12;;;;;;;19.88;11.48;;;;;;;;;;5032072;28;20077;-84
2021/10/02 01:47:16;;;;;;;18.80;10.73;;;;;;;;;;5016247;28;20050;-84
2021/10/02 01:49:44;;;;;;;20.67;11.18;;;;;;;;;;5017075;28;20220;-84
2021/10/02 01:52:14;;;;;;;20.20;11.80;;;;;;;;;;5032807;28;20132;-84
2021/10/02 01:54:42;;;;;;;18.88;11.27;;;;;;;;;;5015528;28;20089;-84
2021/10/02 01:57:09;;;;;;;24.48;11.23;;;;;;;;;;5032268;28;20046;-84
2021/10/02 01:59:36;;;;;;;24.08;12.27;;;;;;;;;;5017827;28;20076;-84
2021/10/02 02:02:04;;;;;;;22.05;12.68;;;;;;;;;;5036405;28;20099;-84
2021/10/02 02:04:31;;;;;;;23.67;12.30;;;;;;;;;;5020249;28;20104;-84
2021/10/02 02:06:58;;;;;;;19.08;12.00;;;;;;;;;;5017382;28;20057;-84
2021/10/02 02:09:33;;;;;;;20.17;12.40;;;;;;;;;;5015703;28;20330;-84
2021/10/02 02:12:01;;;;;;;19.70;12.18;;;;;;;;;;5017776;28;20392;-84
2021/10/02 02:14:27;;;;;;;22.90;12.48;;;;;;;;;;5047987;28;20292;-84
2021/10/02 02:16:54;;;;;;;23.00;12.18;;;;;;;;;;5025537;28;20090;-84
2021/10/02 02:19:24;;;;;;;18.00;11.88;;;;;;;;;;5030931;28;20045;-84
2021/10/02 02:21:51;;;;;;;19.67;12.40;;;;;;;;;;5024076;28;20385;-85
2021/10/02 02:24:18;;;;;;;23.50;13.05;;;;;;;;;;5033270;28;20062;-84
2021/10/02 02:26:45;;;;;;;22.60;11.43;;;;;;;;;;5033608;28;20050;-85
2021/10/02 02:29:18;;;;;;;26.85;12.27;;;;;;;;;;5028761;28;20042;-85
2021/10/02 02:31:46;;;;;;;16.83;10.73;;;;;;;;;;5050838;28;20057;-85
2021/10/02 02:34:15;;;;;;;21.05;12.05;;;;;;;;;;5034529;28;20109;-85
2021/10/02 02:36:48;;;;;;;22.75;12.52;;;;;;;;;;5035599;28;20069;-85
2021/10/02 02:39:14;;;;;;;18.10;12.30;;;;;;;;;;5022671;28;20096;-85
2021/10/02 02:41:41;;;;;;;21.90;11.82;;;;;;;;;;5039245;28;20204;-85
2021/10/02 02:44:10;;;;;;;20.38;11.55;;;;;;;;;;5042194;28;20080;-85
2021/10/02 02:46:40;;;;;;;19.80;12.27;;;;;;;;;;5046788;28;20053;-85
2021/10/02 02:49:11;;;;;;;15.45;11.35;;;;;;;;;;5050012;28;20060;-84
2021/10/02 02:51:47;;;;;;;20.17;11.73;;;;;;;;;;5042553;28;20076;-84
2021/10/02 02:54:16;;;;;;;28.60;12.73;;;;;;;;;;5041316;28;20352;-84
2021/10/02 02:56:45;;;;;;;22.98;13.70;;;;;;;;;;5040960;28;20053;-85
2021/10/02 02:59:23;;;;;;;25.15;14.60;;;;;;;;;;5040215;28;20053;-85
2021/10/02 03:01:51;;;;;;;20.55;13.20;;;;;;;;;;5038554;28;20100;-85
2021/10/02 03:04:18;;;;;;;27.20;14.07;;;;;;;;;;5037689;28;20049;-85
2021/10/02 03:06:50;;;;;;;26.17;15.40;;;;;;;;;;5036989;28;20049;-85
2021/10/02 03:09:18;;;;;;;27.10;15.05;;;;;;;;;;5040461;28;20045;-85
2021/10/02 03:11:46;;;;;;;24.17;15.23;;;;;;;;;;5038897;28;20058;-85
2021/10/02 03:14:14;;;;;;;28.70;15.82;;;;;;;;;;5038934;28;20053;-85
2021/10/02 03:16:41;;;;;;;28.38;15.80;;;;;;;;;;5038992;28;20049;-85
2021/10/02 03:19:08;;;;;;;24.88;16.63;;;;;;;;;;5039336;28;20186;-85
2021/10/02 03:21:35;;;;;;;27.10;16.10;;;;;;;;;;5037776;28;20061;-85
2021/10/02 03:24:03;;;;;;;29.27;17.80;;;;;;;;;;5040060;28;20053;-85
2021/10/02 03:26:31;;;;;;;26.58;17.10;;;;;;;;;;5040871;28;20046;-85
2021/10/02 03:28:58;;;;;;;25.63;17.08;;;;;;;;;;5039317;28;20103;-85
2021/10/02 03:31:25;;;;;;;28.40;17.85;;;;;;;;;;5040588;28;20114;-85
2021/10/02 03:33:54;;;;;;;29.13;18.63;;;;;;;;;;5039659;28;20057;-85
2021/10/02 03:36:21;;;;;;;34.53;18.77;;;;;;;;;;5033219;28;20392;-85
2021/10/02 03:38:48;;;;;;;32.30;17.83;;;;;;;;;;5054806;28;20132;-85
2021/10/02 03:41:15;;;;;;;32.33;19.85;;;;;;;;;;5030925;28;20046;-85
2021/10/02 03:43:41;;;;;;;28.70;18.60;;;;;;;;;;5020663;28;20352;-86
2021/10/02 03:46:08;;;;;;;32.55;18.80;;;;;;;;;;5021252;28;20042;-85
2021/10/02 03:48:37;;;;;;;30.90;20.50;;;;;;;;;;5019697;28;20073;-86
2021/10/02 03:51:05;;;;;;;32.22;19.88;;;;;;;;;;5019590;28;20046;-86
2021/10/02 03:53:35;;;;;;;34.33;19.17;;;;;;;;;;5020198;28;20441;-86
2021/10/02 03:56:04;;;;;;;32.20;20.10;;;;;;;;;;5018482;28;20049;-85
2021/10/02 03:58:32;;;;;;;36.58;21.27;;;;;;;;;;5019657;28;20041;-86
2021/10/02 04:00:58;;;;;;;30.88;21.10;;;;;;;;;;5002722;28;20050;-85
2021/10/02 04:03:31;;;;;;;32.80;21.23;;;;;;;;;;5017688;28;20170;-85
2021/10/02 04:05:58;;;;;;;34.53;22.38;;;;;;;;;;5020315;28;20077;-85
2021/10/02 04:08:25;;;;;;;39.38;23.02;;;;;;;;;;5037616;28;20061;-85
2021/10/02 04:11:06;;;;;;;37.75;22.90;;;;;;;;;;5034554;28;20045;-85
2021/10/02 04:13:32;;;;;;;38.92;23.90;;;;;;;;;;5015742;28;20247;-85
2021/10/02 04:15:59;;;;;;;33.75;22.10;;;;;;;;;;5032807;28;20294;-86
2021/10/02 04:18:26;;;;;;;41.10;22.95;;;;;;;;;;5016565;28;20078;-85
2021/10/02 04:20:52;;;;;;;45.05;23.75;;;;;;;;;;5017757;28;20061;-85
2021/10/02 04:23:19;;;;;;;36.83;24.63;;;;;;;;;;5033563;28;20426;-86
2021/10/02 04:25:49;;;;;;;41.05;24.80;;;;;;;;;;5020366;28;20050;-86
2021/10/02 04:28:21;;;;;;;43.55;25.38;;;;;;;;;;5016543;28;20125;-85
2021/10/02 04:30:49;;;;;;;40.72;24.70;;;;;;;;;;5016231;28;20141;-85
2021/10/02 04:33:18;;;;;;;44.28;23.85;;;;;;;;;;5032127;28;20041;-85
2021/10/02 04:35:44;;;;;;;44.78;25.08;;;;;;;;;;5028399;28;20100;-85
2021/10/02 04:38:12;;;;;;;48.17;26.13;;;;;;;;;;5036678;28;20137;-85
2021/10/02 04:40:39;;;;;;;40.80;24.45;;;;;;;;;;5030704;28;20429;-85
2021/10/02 04:43:06;;;;;;;46.05;24.80;;;;;;;;;;5017270;28;20057;-86
2021/10/02 04:45:32;;;;;;;45.15;24.45;;;;;;;;;;5034312;28;20057;-85
2021/10/02 04:48:03;;;;;;;47.80;25.17;;;;;;;;;;5024885;28;20049;-85
2021/10/02 04:50:32;;;;;;;44.63;25.38;;;;;;;;;;5036881;28;20053;-85
2021/10/02 04:52:59;;;;;;;41.80;23.63;;;;;;;;;;5021651;28;20064;-85
2021/10/02 04:55:29;;;;;;;47.55;24.50;;;;;;;;;;5037458;28;20049;-85
2021/10/02 04:57:57;;;;;;;45.90;25.10;;;;;;;;;;5037986;28;20344;-85
2021/10/02 05:00:23;;;;;;;47.30;25.58;;;;;;;;;;5037698;28;20045;-86
2021/10/02 05:02:51;;;;;;;35.75;24.55;;;;;;;;;;5037234;28;20052;-85
2021/10/02 05:05:19;;;;;;;42.90;25.00;;;;;;;;;;5053430;28;20201;-85
2021/10/02 05:07:45;;;;;;;42.20;23.75;;;;;;;;;;5036935;28;20053;-85
2021/10/02 05:10:12;;;;;;;39.70;24.85;;;;;;;;;;5036690;28;20127;-85
2021/10/02 05:12:39;;;;;;;49.50;24.30;;;;;;;;;;5033392;28;20085;-85
2021/10/02 05:15:06;;;;;;;39.67;24.70;;;;;;;;;;5033492;28;20053;-85
2021/10/02 05:17:32;;;;;;;41.97;24.65;;;;;;;;;;5034301;28;20397;-85
2021/10/02 05:19:59;;;;;;;40.60;24.75;;;;;;;;;;5035858;28;20057;-85
2021/10/02 05:22:26;;;;;;;42.28;24.60;;;;;;;;;;5020860;28;20061;-85
2021/10/02 05:24:52;;;;;;;47.88;25.88;;;;;;;;;;5025037;28;20108;-85
2021/10/02 05:27:19;;;;;;;51.00;26.20;;;;;;;;;;5040219;28;20108;-85
2021/10/02 05:29:46;;;;;;;51.00;27.10;;;;;;;;;;5032381;28;20181;-85
2021/10/02 05:32:19;;;;;;;42.45;26.08;;;;;;;;;;5016099;28;20077;-85
2021/10/02 05:34:45;;;;;;;40.15;25.02;;;;;;;;;;5014842;28;20077;-86
2021/10/02 05:37:12;;;;;;;47.72;24.40;;;;;;;;;;5041956;28;20216;-85
2021/10/02 05:39:39;;;;;;;41.47;23.98;;;;;;;;;;5039153;28;20049;-85
2021/10/02 05:42:05;;;;;;;39.97;22.17;;;;;;;;;;5040250;28;20062;-85
2021/10/02 05:44:33;;;;;;;44.47;24.55;;;;;;;;;;5022613;28;20057;-85
2021/10/02 05:47:00;;;;;;;41.50;23.23;;;;;;;;;;5033671;28;20062;-85
2021/10/02 05:49:27;;;;;;;38.53;23.77;;;;;;;;;;5042854;28;20060;-85
2021/10/02 05:51:54;;;;;;;33.05;21.70;;;;;;;;;;5045990;28;20064;-85
2021/10/02 05:54:20;;;;;;;38.28;21.85;;;;;;;;;;5043627;28;20065;-85
2021/10/02 05:56:50;;;;;;;37.75;21.88;;;;;;;;;;5014625;28;20054;-85
2021/10/02 05:59:19;;;;;;;34.55;21.92;;;;;;;;;;5012434;28;20061;-85
2021/10/02 06:01:45;;;;;;;31.73;22.13;;;;;;;;;;5011923;28;20215;-85
2021/10/02 06:04:12;;;;;;;32.03;21.52;;;;;;;;;;5014108;28;20050;-85
2021/10/02 06:06:39;;;;;;;36.83;23.02;;;;;;;;;;5016445;28;20065;-86
2021/10/02 06:09:05;;;;;;;33.97;21.00;;;;;;;;;;5022682;28;20057;-85
2021/10/02 06:11:38;;;;;;;39.08;21.02;;;;;;;;;;5035736;28;20057;-85
2021/10/02 06:14:05;;;;;;;32.03;20.55;;;;;;;;;;5038555;28;20072;-85
2021/10/02 06:16:32;;;;;;;33.97;21.65;;;;;;;;;;5025102;28;20511;-85
2021/10/02 06:18:58;;;;;;;34.05;21.92;;;;;;;;;;5017859;28;20050;-85
2021/10/02 06:21:25;;;;;;;34.00;22.35;;;;;;;;;;5033054;28;20073;-85
2021/10/02 06:23:52;;;;;;;34.33;21.58;;;;;;;;;;5024494;28;20079;-85
2021/10/02 06:26:18;;;;;;;32.08;20.48;;;;;;;;;;5034783;28;20401;-85
2021/10/02 06:28:53;;;;;;;35.22;21.95;;;;;;;;;;5019387;28;20078;-85
2021/10/02 06:31:20;;;;;;;30.52;20.48;;;;;;;;;;5023863;28;20045;-86
2021/10/02 06:33:48;;;;;;;30.67;20.98;;;;;;;;;;5036934;28;20055;-85
2021/10/02 06:36:15;;;;;;;30.70;20.15;;;;;;;;;;5036043;28;20084;-85
2021/10/02 06:38:42;;;;;;;30.90;21.77;;;;;;;;;;5036361;28;20444;-86
2021/10/02 06:41:10;;;;;;;30.85;21.20;;;;;;;;;;5031783;28;20076;-85
2021/10/02 06:43:36;;;;;;;28.15;20.08;;;;;;;;;;5031465;28;20343;-85
2021/10/02 06:46:06;;;;;;;29.88;19.67;;;;;;;;;;5018299;28;20567;-85
2021/10/02 06:48:33;;;;;;;29.85;19.73;;;;;;;;;;5030753;28;20232;-86
2021/10/02 06:50:59;;;;;;;30.27;19.60;;;;;;;;;;5036268;28;20053;-85
2021/10/02 06:53:26;;;;;;;29.73;19.88;;;;;;;;;;5034688;28;20049;-86
2021/10/02 06:55:53;;;;;;;29.52;20.48;;;;;;;;;;5051236;28;20049;-86
2021/10/02 06:58:22;;;;;;;29.00;20.55;;;;;;;;;;5034802;28;20271;-86
2021/10/02 07:00:50;;;;;;;26.50;19.92;;;;;;;;;;5050415;28;20056;-86
2021/10/02 07:03:21;;;;;;;25.92;19.20;;;;;;;;;;5035162;28;20076;-86
2021/10/02 07:05:49;;;;;;;26.58;19.45;;;;;;;;;;5032481;28;20065;-86
2021/10/02 07:08:15;;;;;;;28.08;19.17;;;;;;;;;;5054968;28;20478;-85
2021/10/02 07:10:42;;;;;;;26.98;19.25;;;;;;;;;;5053852;28;20415;-85
2021/10/02 07:13:08;;;;;;;29.48;19.10;;;;;;;;;;5056532;28;20053;-86
2021/10/02 07:15:35;;;;;;;26.17;19.55;;;;;;;;;;5051531;28;20160;-86
2021/10/02 07:18:02;;;;;;;32.00;20.02;;;;;;;;;;5054649;28;20053;-85
2021/10/02 07:20:31;;;;;;;21.55;17.13;;;;;;;;;;5030652;28;20046;-85
2021/10/02 07:22:57;;;;;;;28.98;18.38;;;;;;;;;;5023922;28;20054;-86
2021/10/02 07:25:25;;;;;;;25.90;17.95;;;;;;;;;;5021378;28;20111;-86
2021/10/02 07:27:52;;;;;;;26.42;18.90;;;;;;;;;;5027127;28;20050;-86
2021/10/02 07:30:20;;;;;;;31.60;19.13;;;;;;;;;;5024532;28;20049;-86
2021/10/02 07:32:46;;;;;;;25.27;19.38;;;;;;;;;;5030467;28;20049;-85
2021/10/02 07:35:14;;;;;;;26.50;19.65;;;;;;;;;;5030891;28;20079;-85
2021/10/02 07:37:41;;;;;;;26.05;18.00;;;;;;;;;;5015863;28;20045;-86
2021/10/02 07:40:08;;;;;;;27.33;18.48;;;;;;;;;;5025518;28;20050;-86
2021/10/02 07:42:36;;;;;;;28.40;18.35;;;;;;;;;;5010300;28;20064;-85
2021/10/02 07:45:05;;;;;;;22.63;17.67;;;;;;;;;;5010388;28;20366;-86
2021/10/02 07:47:32;;;;;;;23.13;16.42;;;;;;;;;;5024252;28;20315;-86
2021/10/02 07:49:59;;;;;;;23.67;17.20;;;;;;;;;;5032614;28;20197;-87
2021/10/02 07:52:29;;;;;;;25.20;17.50;;;;;;;;;;5032665;28;20060;-86
2021/10/02 07:55:00;;;;;;;25.67;17.08;;;;;;;;;;5048047;28;20057;-86
2021/10/02 07:57:27;;;;;;;28.42;17.38;;;;;;;;;;5029715;28;20041;-86
2021/10/02 07:59:54;;;;;;;25.38;16.98;;;;;;;;;;5027883;28;20046;-86
2021/10/02 08:02:21;;;;;;;28.77;17.35;;;;;;;;;;5012402;28;20417;-86
2021/10/02 08:04:49;;;;;;;24.15;16.80;;;;;;;;;;5028937;28;20041;-87
2021/10/02 08:07:17;;;;;;;21.95;15.50;;;;;;;;;;5031390;28;20049;-86
2021/10/02 08:09:45;;;;;;;19.35;15.18;;;;;;;;;;5032258;28;20053;-86
2021/10/02 08:12:15;;;;;;;19.38;14.68;;;;;;;;;;5030920;28;20401;-86
2021/10/02 08:14:41;;;;;;;21.20;15.18;;;;;;;;;;5032631;28;20053;-84
2021/10/02 08:17:08;;;;;;;21.90;15.10;;;;;;;;;;5030409;28;20065;-85
2021/10/02 08:19:36;;;;;;;22.00;14.25;;;;;;;;;;5019672;28;20073;-84
2021/10/02 08:22:04;;;;;;;21.30;14.30;;;;;;;;;;5013188;28;20060;-85
2021/10/02 08:24:31;;;;;;;25.05;15.25;;;;;;;;;;5012125;28;20056;-85
2021/10/02 08:26:59;;;;;;;21.15;14.43;;;;;;;;;;5015422;28;20073;-85
2021/10/02 08:29:26;;;;;;;27.27;15.00;;;;;;;;;;5015436;28;20573;-84
2021/10/02 08:31:55;;;;;;;24.55;14.45;;;;;;;;;;5032294;28;20045;-85
2021/10/02 08:34:24;;;;;;;20.50;15.00;;;;;;;;;;5031155;28;20065;-85
2021/10/02 08:36:51;;;;;;;24.75;14.18;;;;;;;;;;5025562;28;20465;-85
2021/10/02 08:39:17;;;;;;;20.33;14.02;;;;;;;;;;5031329;28;20121;-85
2021/10/02 08:41:45;;;;;;;18.95;13.00;;;;;;;;;;5032735;28;20045;-85
2021/10/02 08:44:18;;;;;;;22.38;14.75;;;;;;;;;;5048335;28;20046;-85
2021/10/02 08:46:49;;;;;;;22.65;13.65;;;;;;;;;;5033295;28;20452;-85
2021/10/02 08:49:31;;;;;;;22.92;13.00;;;;;;;;;;5033560;28;20111;-85
2021/10/02 08:52:07;;;;;;;16.52;11.90;;;;;;;;;;5036000;28;20117;-86
2021/10/02 08:54:36;;;;;;;17.10;11.60;;;;;;;;;;5040887;28;20057;-85
2021/10/02 08:57:05;;;;;;;21.50;12.20;;;;;;;;;;5046284;28;20037;-85
2021/10/02 08:59:32;;;;;;;12.75;10.60;;;;;;;;;;5034741;28;20247;-85
2021/10/02 09:01:59;;;;;;;22.05;11.82;;;;;;;;;;5032223;28;20147;-85
2021/10/02 09:04:28;;;;;;;16.17;10.35;;;;;;;;;;5033963;28;20048;-85
2021/10/02 09:06:55;;;;;;;16.65;10.88;;;;;;;;;;5043465;28;20069;-84
2021/10/02 09:09:22;;;;;;;16.27;11.00;;;;;;;;;;5020818;28;20139;-84
2021/10/02 09:11:51;;;;;;;16.98;12.30;;;;;;;;;;5017750;28;20045;-85
2021/10/02 09:14:18;;;;;;;15.35;10.00;;;;;;;;;;5029784;28;20077;-84
2021/10/02 09:16:46;;;;;;;14.68;9.65;;;;;;;;;;5019316;28;20049;-85
2021/10/02 09:19:13;;;;;;;19.60;10.23;;;;;;;;;;5017970;28;20361;-85
2021/10/02 09:21:44;;;;;;;15.05;9.52;;;;;;;;;;5054110;28;20099;-84
2021/10/02 09:24:22;;;;;;;15.25;10.02;;;;;;;;;;5032148;28;20111;-84
2021/10/02 09:26:51;;;;;;;18.70;10.40;;;;;;;;;;5046539;28;20077;-84
2021/10/02 09:29:32;;;;;;;16.30;9.35;;;;;;;;;;5029272;28;20158;-84
2021/10/02 09:32:03;;;;;;;16.13;9.65;;;;;;;;;;5028273;28;20275;-84
2021/10/02 09:34:30;;;;;;;15.93;8.45;;;;;;;;;;5030024;28;20049;-84
2021/10/02 09:37:02;;;;;;;15.68;8.38;;;;;;;;;;5014654;28;20215;-84
2021/10/02 09:39:40;;;;;;;15.32;9.50;;;;;;;;;;5025516;28;20196;-84
2021/10/02 09:42:17;;;;;;;16.70;9.45;;;;;;;;;;5010252;28;20284;-84
2021/10/02 09:44:44;;;;;;;14.02;8.32;;;;;;;;;;5038156;28;20479;-84
2021/10/02 09:47:14;;;;;;;17.13;9.38;;;;;;;;;;5006915;28;20092;-85
2021/10/02 09:49:44;;;;;;;14.98;7.88;;;;;;;;;;5015588;28;20045;-84
2021/10/02 09:52:27;;;;;;;14.20;8.48;;;;;;;;;;5024033;28;20053;-84
2021/10/02 09:54:54;;;;;;;12.90;9.18;;;;;;;;;;5026284;28;20053;-84
2021/10/02 09:57:21;;;;;;;15.13;9.02;;;;;;;;;;5025295;28;20152;-83
2021/10/02 09:59:48;;;;;;;11.15;7.80;;;;;;;;;;5023225;28;20076;-86
2021/10/02 10:02:16;;;;;;;14.65;9.57;;;;;;;;;;5025326;28;20057;-85
2021/10/02 10:04:54;;;;;;;16.55;10.07;;;;;;;;;;5023828;28;20352;-85
2021/10/02 10:07:21;;;;;;;17.33;10.73;;;;;;;;;;5025784;28;20133;-85
2021/10/02 10:10:13;;;;;;;15.13;10.35;;;;;;;;;;5025395;28;20049;-85
2021/10/02 10:12:41;;;;;;;13.63;8.95;;;;;;;;;;5016328;28;20190;-85
2021/10/02 10:15:25;;;;;;;15.27;9.55;;;;;;;;;;5024484;28;20151;-85
2021/10/02 10:18:04;;;;;;;13.77;10.55;;;;;;;;;;5023131;28;20417;-85
2021/10/02 10:20:31;;;;;;;14.05;10.43;;;;;;;;;;5024943;28;20309;-85
2021/10/02 10:22:58;;;;;;;20.65;11.05;;;;;;;;;;5027098;28;20053;-85
2021/10/02 10:25:50;;;;;;;15.38;10.23;;;;;;;;;;5025535;28;20053;-85
2021/10/02 10:28:18;;;;;;;13.02;7.78;;;;;;;;;;5019833;28;20037;-85
2021/10/02 10:30:47;;;;;;;13.95;7.00;;;;;;;;;;5004901;28;20333;-85
2021/10/02 10:33:14;;;;;;;13.60;6.90;;;;;;;;;;5005466;28;20270;-85
2021/10/02 10:35:47;;;;;;;12.55;7.03;;;;;;;;;;5013387;28;20057;-84
2021/10/02 10:38:16;;;;;;;12.68;6.50;;;;;;;;;;5026635;28;20080;-85
2021/10/02 10:40:43;;;;;;;13.27;7.35;;;;;;;;;;5009579;28;20054;-84
2021/10/02 10:43:10;;;;;;;11.35;7.68;;;;;;;;;;5032916;28;20060;-85
2021/10/02 10:45:37;;;;;;;11.00;7.40;;;;;;;;;;5029591;28;20054;-83
2021/10/02 10:48:08;;;;;;;14.43;7.88;;;;;;;;;;5019134;28;20401;-86
2021/10/02 10:50:41;;;;;;;12.05;8.57;;;;;;;;;;5010534;28;20132;-84
2021/10/02 10:53:08;;;;;;;13.98;8.02;;;;;;;;;;5033663;28;20053;-84
2021/10/02 10:55:52;;;;;;;14.05;8.73;;;;;;;;;;5049763;28;20245;-84
2021/10/02 10:58:23;;;;;;;16.55;9.30;;;;;;;;;;5046923;28;20053;-84
2021/10/02 11:00:50;;;;;;;12.02;9.25;;;;;;;;;;5028335;28;20049;-84
2021/10/02 11:03:36;;;;;;;13.10;9.40;;;;;;;;;;5026032;28;20053;-84
2021/10/02 11:06:04;;;;;;;11.68;8.40;;;;;;;;;;5029773;28;20057;-84
2021/10/02 11:08:49;;;;;;;17.23;9.05;;;;;;;;;;5028457;28;20351;-84
2021/10/02 11:11:16;;;;;;;13.70;9.10;;;;;;;;;;5032093;28;20042;-84
2021/10/02 11:13:45;;;;;;;11.30;8.55;;;;;;;;;;5033644;28;20046;-83
2021/10/02 11:16:31;;;;;;;14.65;8.73;;;;;;;;;;5034086;28;20061;-84
2021/10/02 11:18:58;;;;;;;11.60;8.27;;;;;;;;;;5029656;28;20137;-83
2021/10/02 11:21:29;;;;;;;13.57;7.22;;;;;;;;;;5046306;28;20130;-84
2021/10/02 11:23:59;;;;;;;10.60;6.35;;;;;;;;;;5031674;28;20058;-84
2021/10/02 11:26:43;;;;;;;11.45;6.10;;;;;;;;;;5034268;28;20586;-83
2021/10/02 11:29:28;;;;;;;7.53;5.63;;;;;;;;;;5034693;28;20237;-83
2021/10/02 11:32:26;;;;;;;10.75;5.40;;;;;;;;;;5032595;28;20125;-85
2021/10/02 11:35:07;;;;;;;9.77;5.82;;;;;;;;;;5034640;28;20145;-86
2021/10/02 11:37:53;;;;;;;6.13;3.67;;;;;;;;;;5034444;28;20452;-86
2021/10/02 11:40:32;;;;;;;6.15;3.70;;;;;;;;;;5031828;28;20041;-83
2021/10/02 11:43:18;;;;;;;6.20;4.05;;;;;;;;;;5025636;28;20041;-85
2021/10/02 11:45:45;;;;;;;8.32;4.22;;;;;;;;;;5030857;28;20065;-85
2021/10/02 11:48:13;;;;;;;9.50;4.18;;;;;;;;;;5033838;28;20065;-85
2021/10/02 11:50:40;;;;;;;8.32;4.22;;;;;;;;;;5031284;28;20175;-85
2021/10/02 11:53:10;;;;;;;7.28;4.28;;;;;;;;;;5033073;28;20060;-85
2021/10/02 11:55:40;;;;;;;10.30;5.05;;;;;;;;;;5029379;28;20054;-84
2021/10/02 11:58:06;;;;;;;8.85;4.45;;;;;;;;;;5029026;28;20103;-84
2021/10/02 12:00:47;;;;;;;8.38;4.78;;;;;;;;;;5030569;28;20045;-84
2021/10/02 12:03:25;;;;;;;7.90;4.35;;;;;;;;;;5030825;28;20054;-84
2021/10/02 12:05:53;;;;;;;6.13;3.97;;;;;;;;;;5029413;28;20111;-83
2021/10/02 12:08:23;;;;;;;8.48;3.90;;;;;;;;;;5042981;28;20104;-84
2021/10/02 12:11:04;;;;;;;11.35;4.55;;;;;;;;;;5043446;28;20045;-84
2021/10/02 12:13:45;;;;;;;6.18;4.88;;;;;;;;;;5033730;28;20193;-84
2021/10/02 12:16:16;;;;;;;10.07;4.88;;;;;;;;;;5031702;28;20364;-85
2021/10/02 12:19:05;;;;;;;12.88;5.05;;;;;;;;;;5043782;28;20064;-84
2021/10/02 12:21:36;;;;;;;8.57;4.65;;;;;;;;;;5044196;28;20207;-85
2021/10/02 12:24:08;;;;;;;8.82;4.78;;;;;;;;;;5051057;28;20391;-84
2021/10/02 12:26:41;;;;;;;10.32;4.40;;;;;;;;;;5033630;28;20320;-85
2021/10/02 12:29:08;;;;;;;5.68;3.53;;;;;;;;;;5030838;28;20060;-85
2021/10/02 12:31:47;;;;;;;9.27;3.17;;;;;;;;;;5010292;28;20085;-85
2021/10/02 12:34:15;;;;;;;10.52;3.88;;;;;;;;;;5011140;28;20424;-85
2021/10/02 12:36:43;;;;;;;10.00;3.90;;;;;;;;;;5011024;28;20045;-85
2021/10/02 12:39:11;;;;;;;9.05;3.83;;;;;;;;;;5012807;28;20117;-84
2021/10/02 12:41:43;;;;;;;10.05;3.60;;;;;;;;;;5037005;28;20060;-85
2021/10/02 12:44:23;;;;;;;7.95;3.38;;;;;;;;;;5024550;28;20068;-84
2021/10/02 12:46:50;;;;;;;8.27;2.88;;;;;;;;;;5023352;28;20060;-84
2021/10/02 12:49:27;;;;;;;5.75;3.33;;;;;;;;;;5022747;28;20390;-84
2021/10/02 12:51:54;;;;;;;5.13;2.85;;;;;;;;;;5009118;28;20613;-84
2021/10/02 12:54:24;;;;;;;6.82;3.55;;;;;;;;;;5027196;28;20107;-84
2021/10/02 12:56:57;;;;;;;8.95;3.47;;;;;;;;;;5012434;28;20049;-84
2021/10/02 12:59:36;;;;;;;7.47;3.60;;;;;;;;;;5006509;28;20045;-83
2021/10/02 13:02:03;;;;;;;5.10;3.10;;;;;;;;;;5014458;28;20045;-83
2021/10/02 13:04:32;;;;;;;6.07;3.13;;;;;;;;;;5019989;28;20191;-84
2021/10/02 13:06:59;;;;;;;9.57;3.50;;;;;;;;;;5021832;28;20075;-84
2021/10/02 13:09:28;;;;;;;5.53;2.78;;;;;;;;;;5022140;28;20053;-85
2021/10/02 13:12:04;;;;;;;5.75;3.13;;;;;;;;;;5025485;28;20053;-84
2021/10/02 13:14:46;;;;;;;6.95;3.58;;;;;;;;;;5035186;28;20050;-84
2021/10/02 13:17:15;;;;;;;5.50;2.60;;;;;;;;;;5031163;28;20048;-85
2021/10/02 13:20:07;;;;;;;9.00;2.97;;;;;;;;;;5035184;28;20313;-84
2021/10/02 13:22:48;;;;;;;6.53;2.83;;;;;;;;;;5027574;28;20131;-84
2021/10/02 13:25:22;;;;;;;4.38;2.67;;;;;;;;;;5026716;28;20049;-85
2021/10/02 13:27:50;;;;;;;5.18;2.47;;;;;;;;;;5029469;28;20277;-84
2021/10/02 13:30:19;;;;;;;7.45;2.67;;;;;;;;;;5031455;28;20049;-85
2021/10/02 13:33:05;;;;;;;6.28;2.60;;;;;;;;;;5033908;28;20522;-83
2021/10/02 13:35:36;;;;;;;7.47;2.35;;;;;;;;;;5030058;28;20053;-83
2021/10/02 13:38:04;;;;;;;4.97;2.30;;;;;;;;;;5028441;28;20212;-84
2021/10/02 13:40:34;;;;;;;4.97;1.83;;;;;;;;;;5030275;28;20057;-82
2021/10/02 13:43:11;;;;;;;4.60;2.10;;;;;;;;;;5021559;28;20060;-84
2021/10/02 13:45:43;;;;;;;3.83;2.13;;;;;;;;;;5041912;28;20046;-84
2021/10/02 13:48:13;;;;;;;6.28;2.15;;;;;;;;;;5012609;28;20045;-83
2021/10/02 13:50:47;;;;;;;6.00;2.88;;;;;;;;;;5017514;28;20425;-83
2021/10/02 13:53:14;;;;;;;4.57;2.15;;;;;;;;;;5031102;28;20045;-84
2021/10/02 13:55:40;;;;;;;3.70;2.05;;;;;;;;;;5031485;28;20056;-83
2021/10/02 13:58:09;;;;;;;7.55;1.60;;;;;;;;;;5026303;28;20065;-83
2021/10/02 14:00:36;;;;;;;3.92;1.90;;;;;;;;;;5014129;28;20046;-83
2021/10/02 14:03:02;;;;;;;4.25;2.00;;;;;;;;;;5013986;28;20288;-83
2021/10/02 14:05:29;;;;;;;4.88;2.40;;;;;;;;;;5018580;28;20392;-84
2021/10/02 14:07:59;;;;;;;4.45;2.38;;;;;;;;;;5012414;28;20056;-84
2021/10/02 14:10:28;;;;;;;4.68;2.42;;;;;;;;;;5010348;28;20085;-84
2021/10/02 14:12:58;;;;;;;7.07;3.05;;;;;;;;;;5011574;28;20309;-84
2021/10/02 14:15:24;;;;;;;7.30;3.13;;;;;;;;;;5009829;28;20050;-84
2021/10/02 14:17:51;;;;;;;3.70;3.05;;;;;;;;;;5012192;28;20144;-84
2021/10/02 14:20:18;;;;;;;5.85;3.85;;;;;;;;;;5014315;28;20253;-84
2021/10/02 14:22:45;;;;;;;10.25;3.95;;;;;;;;;;5028108;28;20049;-84
2021/10/02 14:25:12;;;;;;;5.50;3.88;;;;;;;;;;5028974;28;20061;-84
2021/10/02 14:27:39;;;;;;;5.95;3.70;;;;;;;;;;5028755;28;20365;-84
2021/10/02 14:30:07;;;;;;;7.63;3.80;;;;;;;;;;5016882;28;20045;-84
2021/10/02 14:32:33;;;;;;;5.85;2.97;;;;;;;;;;5033413;28;20451;-84
2021/10/02 14:35:16;;;;;;;5.05;3.70;;;;;;;;;;5034384;28;20114;-84
2021/10/02 14:37:43;;;;;;;4.90;2.70;;;;;;;;;;5039986;28;20045;-84
2021/10/02 14:40:10;;;;;;;5.25;3.13;;;;;;;;;;5043714;28;20055;-84
2021/10/02 14:42:41;;;;;;;5.10;2.67;;;;;;;;;;5036462;28;20051;-84
2021/10/02 14:45:08;;;;;;;7.65;4.00;;;;;;;;;;5035138;28;20053;-84
2021/10/02 14:47:34;;;;;;;5.03;3.15;;;;;;;;;;5041386;28;20049;-84
2021/10/02 14:50:03;;;;;;;7.70;5.10;;;;;;;;;;5018925;28;20068;-84
2021/10/02 14:52:33;;;;;;;5.72;3.90;;;;;;;;;;5034289;28;20101;-84
2021/10/02 14:55:04;;;;;;;5.45;2.38;;;;;;;;;;5035682;28;20076;-84
2021/10/02 14:57:37;;;;;;;4.10;2.38;;;;;;;;;;5035376;28;20182;-83
2021/10/02 15:00:08;;;;;;;3.25;2.05;;;;;;;;;;5035130;28;20059;-84
2021/10/02 15:02:38;;;;;;;2.85;1.92;;;;;;;;;;5035613;28;20052;-83
2021/10/02 15:05:05;;;;;;;3.67;2.22;;;;;;;;;;5035865;28;20053;-83
2021/10/02 15:07:32;;;;;;;5.05;1.70;;;;;;;;;;5033706;28;20148;-84
2021/10/02 15:09:58;;;;;;;4.82;2.38;;;;;;;;;;5023626;28;20049;-84
2021/10/02 15:12:35;;;;;;;5.05;1.77;;;;;;;;;;5050329;28;20069;-84
2021/10/02 15:15:06;;;;;;;1.70;1.35;;;;;;;;;;5029869;28;20455;-84
2021/10/02 15:17:32;;;;;;;2.67;1.30;;;;;;;;;;5033745;28;20053;-84
2021/10/02 15:20:02;;;;;;;5.03;2.42;;;;;;;;;;5039622;28;20044;-85
2021/10/02 15:22:30;;;;;;;4.53;2.60;;;;;;;;;;5059179;28;20132;-84
2021/10/02 15:25:00;;;;;;;4.53;1.27;;;;;;;;;;5063027;28;20068;-84
2021/10/02 15:27:43;;;;;;;5.55;1.27;;;;;;;;;;5052565;28;20064;-84
2021/10/02 15:30:10;;;;;;;2.80;1.73;;;;;;;;;;5034376;28;20049;-84
2021/10/02 15:32:37;;;;;;;3.92;1.58;;;;;;;;;;5041462;28;20098;-84
2021/10/02 15:35:04;;;;;;;2.28;1.40;;;;;;;;;;5024672;28;20061;-84
2021/10/02 15:37:33;;;;;;;2.00;1.20;;;;;;;;;;5023189;28;20240;-84